createdAt,value
2018-07-30T00:00:20.088Z,65.59
2018-07-30T00:01:00.620Z,65.72
2018-07-30T00:01:41.125Z,65.5
2018-07-30T00:02:21.588Z,65.69
2018-07-30T00:03:02.082Z,65.92
2018-07-30T00:03:42.620Z,65.01
2018-07-30T00:04:23.090Z,65.43
2018-07-30T00:05:03.583Z,65.11
2018-07-30T00:05:44.104Z,65.11
2018-07-30T00:06:24.568Z,65.24
2018-07-30T00:07:05.062Z,65.01
2018-07-30T00:07:45.577Z,65.01
2018-07-30T00:08:26.024Z,65.01
2018-07-30T00:09:06.508Z,64.72
2018-07-30T00:09:47.025Z,65.3
2018-07-30T00:10:27.559Z,65.59
2018-07-30T00:11:08.033Z,65.79
2018-07-30T00:11:48.564Z,65.4
2018-07-30T00:12:29.022Z,65.98
2018-07-30T00:13:09.561Z,65.3
2018-07-30T00:13:50.007Z,65.4
2018-07-30T00:14:30.561Z,65.3
2018-07-30T00:15:11.089Z,65.4
2018-07-30T00:15:51.554Z,65.2
2018-07-30T00:16:32.034Z,65.01
2018-07-30T00:17:12.527Z,65.01
2018-07-30T00:17:53.055Z,65.11
2018-07-30T00:18:33.541Z,65.2
2018-07-30T00:19:14.032Z,65.11
2018-07-30T00:19:54.545Z,65.2
2018-07-30T00:20:35.011Z,65.2
2018-07-30T00:21:15.569Z,65.01
2018-07-30T00:21:56.066Z,65.11
2018-07-30T00:22:36.540Z,65.2
2018-07-30T00:23:17.100Z,65.01
2018-07-30T00:23:57.501Z,65.01
2018-07-30T00:24:38.108Z,65.2
2018-07-30T00:25:18.664Z,65.11
2018-07-30T00:25:59.174Z,65.11
2018-07-30T00:26:39.643Z,65.4
2018-07-30T00:27:20.121Z,65.2
2018-07-30T00:28:00.637Z,65.01
2018-07-30T00:28:41.184Z,65.11
2018-07-30T00:29:21.641Z,65.01
2018-07-30T00:30:02.130Z,65.3
2018-07-30T00:30:42.612Z,65.2
2018-07-30T00:31:23.134Z,65.3
2018-07-30T00:32:03.668Z,65.5
2018-07-30T00:32:44.095Z,65.3
2018-07-30T00:33:24.613Z,65.79
2018-07-30T00:34:05.096Z,65.79
2018-07-30T00:34:45.609Z,65.4
2018-07-30T00:35:26.081Z,65.4
2018-07-30T00:36:06.574Z,65.3
2018-07-30T00:36:47.106Z,65.5
2018-07-30T00:37:27.571Z,65.5
2018-07-30T00:38:08.096Z,65.79
2018-07-30T00:38:48.551Z,65.79
2018-07-30T00:39:29.084Z,65.5
2018-07-30T00:40:09.587Z,65.4
2018-07-30T00:40:50.086Z,65.59
2018-07-30T00:41:30.581Z,66.08
2018-07-30T00:42:11.105Z,65.79
2018-07-30T00:42:51.614Z,65.59
2018-07-30T00:43:32.079Z,65.59
2018-07-30T00:44:12.628Z,65.5
2018-07-30T00:44:53.075Z,65.59
2018-07-30T00:45:33.526Z,65.79
2018-07-30T00:46:13.998Z,65.79
2018-07-30T00:46:54.552Z,65.79
2018-07-30T00:47:35.011Z,65.5
2018-07-30T00:48:15.558Z,65.5
2018-07-30T00:48:56.008Z,65.79
2018-07-30T00:49:36.467Z,65.79
2018-07-30T00:50:17.012Z,66.37
2018-07-30T00:50:57.468Z,66.56
2018-07-30T00:51:37.969Z,66.27
2018-07-30T00:52:18.449Z,66.34
2018-07-30T00:52:58.968Z,66.08
2018-07-30T00:53:39.436Z,65.95
2018-07-30T00:54:19.961Z,66.27
2018-07-30T00:55:00.464Z,66.08
2018-07-30T00:55:40.935Z,65.95
2018-07-30T00:56:21.447Z,66.17
2018-07-30T00:57:01.915Z,65.98
2018-07-30T00:57:42.429Z,66.17
2018-07-30T00:58:22.965Z,66.27
2018-07-30T00:59:03.476Z,66.17
2018-07-30T00:59:43.907Z,66.47
2018-07-30T01:00:24.416Z,66.37
2018-07-30T01:01:04.922Z,67.14
2018-07-30T01:01:45.444Z,66.37
2018-07-30T01:02:25.911Z,66.17
2018-07-30T01:03:06.394Z,66.08
2018-07-30T01:03:46.879Z,66.37
2018-07-30T01:04:27.395Z,66.34
2018-07-30T01:05:07.910Z,66.72
2018-07-30T01:05:48.449Z,66.95
2018-07-30T01:06:28.915Z,66.47
2018-07-30T01:07:09.412Z,66.37
2018-07-30T01:07:49.897Z,66.76
2018-07-30T01:08:30.367Z,66.82
2018-07-30T01:09:10.863Z,67.11
2018-07-30T01:09:51.363Z,67.21
2018-07-30T01:10:31.874Z,66.53
2018-07-30T01:11:12.354Z,66.63
2018-07-30T01:11:52.844Z,66.82
2018-07-30T01:12:33.346Z,66.82
2018-07-30T01:13:13.800Z,67.4
2018-07-30T01:13:54.303Z,67.02
2018-07-30T01:14:34.808Z,67.6
2018-07-30T01:15:15.303Z,67.57
2018-07-30T01:15:55.791Z,67.99
2018-07-30T01:16:36.246Z,68.08
2018-07-30T01:17:16.721Z,68.47
2018-07-30T01:17:57.204Z,68.18
2018-07-30T01:18:37.749Z,68.18
2018-07-30T01:19:18.202Z,68.37
2018-07-30T01:19:58.679Z,68.24
2018-07-30T01:20:39.207Z,68.15
2018-07-30T01:21:19.705Z,68.24
2018-07-30T01:22:00.180Z,68.54
2018-07-30T01:22:40.652Z,68.24
2018-07-30T01:23:21.122Z,68.18
2018-07-30T01:24:01.644Z,68.15
2018-07-30T01:24:42.110Z,68.18
2018-07-30T01:25:22.571Z,67.95
2018-07-30T01:26:03.113Z,67.99
2018-07-30T01:26:43.587Z,67.47
2018-07-30T01:27:24.135Z,67.27
2018-07-30T01:28:04.632Z,67.85
2018-07-30T01:28:45.132Z,67.18
2018-07-30T01:29:25.649Z,67.18
2018-07-30T01:30:06.233Z,67.66
2018-07-30T01:30:46.652Z,66.99
2018-07-30T01:31:27.142Z,66.99
2018-07-30T01:32:07.629Z,67.27
2018-07-30T01:32:48.096Z,67.18
2018-07-30T01:33:28.628Z,67.37
2018-07-30T01:34:09.100Z,67.27
2018-07-30T01:34:49.594Z,66.99
2018-07-30T01:35:30.076Z,67.27
2018-07-30T01:36:10.570Z,66.99
2018-07-30T01:36:51.130Z,66.69
2018-07-30T01:37:31.537Z,66.89
2018-07-30T01:38:12.145Z,66.99
2018-07-30T01:38:52.678Z,66.99
2018-07-30T01:39:33.146Z,67.37
2018-07-30T01:40:13.642Z,67.27
2018-07-30T01:40:54.123Z,67.27
2018-07-30T01:41:34.682Z,67.18
2018-07-30T01:42:15.170Z,66.79
2018-07-30T01:42:55.690Z,66.79
2018-07-30T01:43:36.283Z,67.08
2018-07-30T01:44:16.736Z,67.18
2018-07-30T01:44:57.231Z,66.6
2018-07-30T01:45:37.729Z,67.18
2018-07-30T01:46:18.241Z,67.37
2018-07-30T01:46:58.746Z,67.47
2018-07-30T01:47:39.277Z,67.18
2018-07-30T01:48:19.735Z,67.18
2018-07-30T01:49:00.202Z,67.57
2018-07-30T01:49:40.668Z,67.37
2018-07-30T01:50:21.194Z,67.95
2018-07-30T01:51:01.655Z,68.34
2018-07-30T01:51:42.206Z,68.34
2018-07-30T01:52:22.703Z,68.54
2018-07-30T01:53:03.189Z,68.54
2018-07-30T01:53:43.682Z,68.44
2018-07-30T01:54:24.186Z,68.73
2018-07-30T01:55:04.673Z,68.44
2018-07-30T01:55:45.176Z,68.63
2018-07-30T01:56:25.682Z,68.44
2018-07-30T01:57:06.147Z,68.54
2018-07-30T01:57:46.614Z,68.34
2018-07-30T01:58:27.121Z,68.73
2018-07-30T01:59:07.614Z,68.44
2018-07-30T01:59:48.102Z,68.92
2018-07-30T02:00:28.670Z,68.89
2018-07-30T02:01:09.217Z,68.54
2018-07-30T02:01:49.731Z,68.54
2018-07-30T02:02:30.275Z,68.34
2018-07-30T02:03:10.732Z,68.34
2018-07-30T02:03:51.265Z,68.4
2018-07-30T02:04:31.773Z,67.95
2018-07-30T02:05:12.266Z,68.15
2018-07-30T02:05:52.815Z,67.57
2018-07-30T02:06:33.293Z,67.57
2018-07-30T02:07:13.763Z,67.18
2018-07-30T02:07:54.297Z,66.99
2018-07-30T02:08:34.833Z,66.85
2018-07-30T02:09:15.311Z,66.56
2018-07-30T02:09:55.814Z,66.75
2018-07-30T02:10:36.280Z,66.99
2018-07-30T02:11:16.770Z,66.5
2018-07-30T02:11:57.288Z,66.2
2018-07-30T02:12:37.872Z,66.27
2018-07-30T02:13:18.327Z,65.79
2018-07-30T02:13:58.893Z,65.79
2018-07-30T02:14:39.414Z,66.08
2018-07-30T02:15:19.986Z,65.98
2018-07-30T02:16:00.420Z,66.66
2018-07-30T02:16:40.863Z,66.47
2018-07-30T02:17:21.387Z,66.85
2018-07-30T02:18:01.968Z,66.85
2018-07-30T02:18:42.456Z,66.95
2018-07-30T02:19:22.895Z,66.75
2018-07-30T02:20:03.374Z,66.85
2018-07-30T02:20:43.898Z,66.75
2018-07-30T02:21:24.386Z,66.66
2018-07-30T02:22:04.902Z,66.56
2018-07-30T02:22:45.351Z,66.47
2018-07-30T02:23:25.855Z,66.82
2018-07-30T02:24:06.338Z,66.75
2018-07-30T02:24:46.845Z,67.34
2018-07-30T02:25:27.387Z,66.95
2018-07-30T02:26:07.864Z,67.14
2018-07-30T02:26:48.347Z,67.24
2018-07-30T02:27:28.868Z,66.85
2018-07-30T02:28:09.352Z,66.75
2018-07-30T02:28:49.792Z,67.14
2018-07-30T02:29:30.314Z,67.11
2018-07-30T02:30:10.828Z,66.95
2018-07-30T02:30:51.357Z,67.53
2018-07-30T02:31:31.819Z,66.43
2018-07-30T02:32:12.296Z,66.95
2018-07-30T02:32:52.832Z,66.56
2018-07-30T02:33:33.301Z,66.75
2018-07-30T02:34:13.880Z,67.14
2018-07-30T02:34:54.397Z,67.34
2018-07-30T02:35:34.857Z,67.34
2018-07-30T02:36:15.357Z,66.75
2018-07-30T02:36:55.881Z,66.85
2018-07-30T02:37:36.363Z,66.95
2018-07-30T02:38:16.893Z,66.95
2018-07-30T02:38:57.363Z,66.72
2018-07-30T02:39:37.847Z,66.53
2018-07-30T02:40:18.356Z,67.4
2018-07-30T02:40:58.854Z,67.14
2018-07-30T02:41:39.359Z,67.14
2018-07-30T02:42:19.878Z,67.5
2018-07-30T02:43:00.349Z,67.21
2018-07-30T02:43:40.854Z,67.02
2018-07-30T02:44:21.334Z,67.79
2018-07-30T02:45:01.827Z,67.79
2018-07-30T02:45:42.332Z,67.69
2018-07-30T02:46:22.874Z,67.5
2018-07-30T02:47:03.458Z,67.5
2018-07-30T02:47:43.952Z,67.5
2018-07-30T02:48:24.457Z,68.18
2018-07-30T02:49:04.933Z,68.37
2018-07-30T02:49:45.423Z,68.37
2018-07-30T02:50:25.878Z,68.37
2018-07-30T02:51:06.379Z,68.37
2018-07-30T02:51:46.930Z,68.18
2018-07-30T02:52:27.458Z,68.27
2018-07-30T02:53:07.909Z,68.66
2018-07-30T02:53:48.397Z,68.56
2018-07-30T02:54:28.985Z,68.56
2018-07-30T02:55:09.427Z,68.85
2018-07-30T02:55:49.935Z,68.37
2018-07-30T02:56:30.393Z,68.37
2018-07-30T02:57:10.878Z,68.56
2018-07-30T02:57:51.395Z,68.56
2018-07-30T02:58:31.983Z,68.56
2018-07-30T02:59:12.773Z,68.47
2018-07-30T02:59:53.385Z,68.47
2018-07-30T03:00:33.849Z,68.47
2018-07-30T03:01:14.330Z,68.27
2018-07-30T03:01:54.850Z,68.27
2018-07-30T03:02:35.342Z,68.27
2018-07-30T03:03:15.807Z,68.37
2018-07-30T03:03:56.292Z,68.18
2018-07-30T03:04:36.765Z,68.18
2018-07-30T03:05:17.292Z,68.08
2018-07-30T03:05:57.757Z,68.18
2018-07-30T03:06:38.278Z,68.27
2018-07-30T03:07:18.759Z,68.27
2018-07-30T03:07:59.303Z,67.98
2018-07-30T03:08:39.831Z,67.79
2018-07-30T03:09:20.382Z,67.5
2018-07-30T03:10:00.828Z,67.5
2018-07-30T03:10:41.345Z,67.6
2018-07-30T03:11:21.989Z,67.69
2018-07-30T03:12:02.503Z,67.79
2018-07-30T03:12:43.000Z,68.27
2018-07-30T03:13:23.527Z,68.18
2018-07-30T03:14:04.070Z,68.18
2018-07-30T03:14:44.531Z,68.27
2018-07-30T03:15:25.013Z,68.27
2018-07-30T03:16:05.535Z,67.88
2018-07-30T03:16:46.020Z,68.18
2018-07-30T03:17:26.499Z,68.47
2018-07-30T03:18:06.964Z,68.08
2018-07-30T03:18:47.513Z,68.76
2018-07-30T03:19:27.976Z,68.27
2018-07-30T03:20:08.478Z,68.56
2018-07-30T03:20:49.025Z,68.56
2018-07-30T03:21:29.564Z,68.37
2018-07-30T03:22:09.995Z,68.95
2018-07-30T03:22:50.502Z,68.66
2018-07-30T03:23:31.033Z,68.95
2018-07-30T03:24:11.477Z,69.15
2018-07-30T03:24:52.060Z,69.15
2018-07-30T03:25:32.578Z,69.24
2018-07-30T03:26:13.028Z,68.76
2018-07-30T03:26:53.516Z,69.05
2018-07-30T03:27:34.074Z,69.34
2018-07-30T03:28:14.556Z,68.66
2018-07-30T03:28:55.044Z,68.95
2018-07-30T03:29:35.567Z,69.24
2018-07-30T03:30:16.074Z,68.66
2018-07-30T03:30:56.575Z,68.95
2018-07-30T03:31:37.073Z,68.95
2018-07-30T03:32:17.505Z,68.85
2018-07-30T03:32:58.020Z,68.85
2018-07-30T03:33:38.570Z,68.85
2018-07-30T03:34:19.064Z,68.85
2018-07-30T03:34:59.553Z,68.85
2018-07-30T03:35:40.076Z,68.95
2018-07-30T03:36:20.531Z,68.85
2018-07-30T03:37:01.007Z,68.76
2018-07-30T03:37:41.515Z,69.05
2018-07-30T03:38:22.028Z,69.05
2018-07-30T03:39:02.509Z,68.95
2018-07-30T03:39:43.037Z,68.76
2018-07-30T03:40:23.519Z,69.05
2018-07-30T03:41:04.033Z,68.85
2018-07-30T03:41:44.556Z,68.95
2018-07-30T03:42:25.074Z,69.15
2018-07-30T03:43:05.508Z,69.15
2018-07-30T03:43:45.995Z,69.05
2018-07-30T03:44:26.450Z,69.63
2018-07-30T03:45:06.993Z,69.63
2018-07-30T03:45:47.514Z,69.15
2018-07-30T03:46:27.945Z,69.53
2018-07-30T03:47:08.486Z,68.95
2018-07-30T03:47:48.937Z,68.95
2018-07-30T03:48:29.472Z,68.95
2018-07-30T03:49:10.119Z,68.95
2018-07-30T03:49:50.557Z,69.34
2018-07-30T03:50:31.061Z,69.34
2018-07-30T03:51:11.545Z,69.63
2018-07-30T03:51:51.993Z,69.05
2018-07-30T03:52:32.487Z,69.63
2018-07-30T03:53:13.007Z,69.53
2018-07-30T03:53:53.520Z,69.43
2018-07-30T03:54:34.019Z,69.34
2018-07-30T03:55:14.512Z,69.34
2018-07-30T03:55:55.008Z,69.82
2018-07-30T03:56:35.486Z,69.34
2018-07-30T03:57:15.981Z,69.34
2018-07-30T03:57:56.520Z,69.63
2018-07-30T03:58:36.985Z,69.24
2018-07-30T03:59:17.463Z,69.24
2018-07-30T03:59:57.993Z,68.95
2018-07-30T04:00:38.510Z,68.85
2018-07-30T04:01:18.994Z,69.15
2018-07-30T04:01:59.501Z,69.53
2018-07-30T04:02:40.057Z,69.43
2018-07-30T04:03:20.548Z,69.53
2018-07-30T04:04:01.061Z,68.95
2018-07-30T04:04:41.692Z,69.05
2018-07-30T04:05:22.230Z,69.53
2018-07-30T04:06:02.697Z,69.05
2018-07-30T04:06:43.244Z,68.89
2018-07-30T04:07:23.693Z,68.95
2018-07-30T04:08:04.283Z,69.53
2018-07-30T04:08:44.791Z,69.63
2018-07-30T04:09:25.305Z,69.53
2018-07-30T04:10:05.745Z,69.92
2018-07-30T04:10:46.324Z,69.43
2018-07-30T04:11:26.802Z,69.43
2018-07-30T04:12:07.294Z,69.37
2018-07-30T04:12:47.887Z,69.43
2018-07-30T04:13:28.287Z,69.37
2018-07-30T04:14:08.813Z,69.47
2018-07-30T04:14:49.313Z,68.99
2018-07-30T04:15:29.788Z,68.89
2018-07-30T04:16:10.288Z,69.18
2018-07-30T04:16:50.859Z,68.99
2018-07-30T04:18:45.729Z,68.7
2018-07-30T04:19:26.208Z,69.08
2018-07-30T04:20:06.731Z,69.18
2018-07-30T04:20:47.283Z,68.89
2018-07-30T04:21:27.758Z,68.99
2018-07-30T04:22:08.290Z,68.4
2018-07-30T04:22:48.788Z,68.34
2018-07-30T04:23:29.319Z,68.63
2018-07-30T04:24:09.807Z,68.63
2018-07-30T04:24:50.246Z,68.54
2018-07-30T04:25:30.796Z,68.92
2018-07-30T04:26:11.248Z,68.63
2018-07-30T04:26:51.755Z,68.63
2018-07-30T04:27:32.222Z,68.44
2018-07-30T04:28:12.684Z,68.24
2018-07-30T04:28:53.219Z,68.24
2018-07-30T04:29:33.666Z,68.24
2018-07-30T04:30:14.162Z,68.15
2018-07-30T04:30:54.781Z,68.44
2018-07-30T04:31:35.191Z,68.24
2018-07-30T04:32:15.756Z,67.95
2018-07-30T04:32:57.143Z,68.54
2018-07-30T04:33:37.749Z,68.92
2018-07-30T04:34:18.264Z,68.34
2018-07-30T04:34:58.735Z,68.15
2018-07-30T04:35:39.206Z,68.28
2018-07-30T04:36:19.711Z,68.28
2018-07-30T04:37:00.223Z,68.34
2018-07-30T04:37:40.723Z,68.44
2018-07-30T04:38:22.024Z,68.37
2018-07-30T04:39:02.487Z,68.08
2018-07-30T04:39:43.010Z,68.08
2018-07-30T04:40:23.429Z,67.99
2018-07-30T04:41:03.938Z,67.69
2018-07-30T04:41:44.488Z,68.47
2018-07-30T04:42:24.965Z,67.99
2018-07-30T04:43:05.500Z,67.99
2018-07-30T04:43:46.048Z,68.28
2018-07-30T04:44:26.493Z,67.5
2018-07-30T04:45:06.965Z,67.54
2018-07-30T04:45:47.627Z,67.54
2018-07-30T04:46:28.120Z,67.24
2018-07-30T04:47:08.627Z,67.44
2018-07-30T04:47:49.097Z,67.34
2018-07-30T04:48:29.584Z,67.24
2018-07-30T04:49:10.155Z,67.24
2018-07-30T04:49:50.564Z,67.44
2018-07-30T04:50:31.087Z,67.44
2018-07-30T04:51:11.552Z,67.05
2018-07-30T04:51:52.111Z,67.24
2018-07-30T04:52:32.651Z,67.24
2018-07-30T04:53:13.192Z,67.34
2018-07-30T04:53:53.662Z,67.14
2018-07-30T04:54:34.170Z,67.44
2018-07-30T04:55:14.649Z,67.44
2018-07-30T04:55:55.119Z,66.95
2018-07-30T04:56:35.644Z,66.76
2018-07-30T04:57:16.159Z,67.05
2018-07-30T04:57:56.647Z,66.95
2018-07-30T04:58:37.134Z,66.86
2018-07-30T04:59:17.652Z,66.86
2018-07-30T04:59:58.159Z,67.05
2018-07-30T05:00:39.697Z,67.14
2018-07-30T05:01:20.234Z,66.86
2018-07-30T05:02:00.720Z,67.24
2018-07-30T05:02:41.233Z,67.14
2018-07-30T05:03:21.803Z,67.54
2018-07-30T05:04:02.329Z,67.44
2018-07-30T05:04:42.821Z,67.05
2018-07-30T05:05:23.282Z,67.44
2018-07-30T05:06:03.918Z,66.79
2018-07-30T05:06:44.965Z,66.11
2018-07-30T05:07:25.323Z,66.3
2018-07-30T05:08:05.826Z,66.21
2018-07-30T05:08:46.310Z,65.95
2018-07-30T05:09:26.869Z,65.75
2018-07-30T05:10:07.351Z,65.27
2018-07-30T05:10:47.825Z,65.95
2018-07-30T05:11:28.334Z,66.3
2018-07-30T05:12:08.876Z,65.92
2018-07-30T05:12:49.348Z,66.4
2018-07-30T05:13:29.785Z,66.99
2018-07-30T05:14:10.313Z,67.08
2018-07-30T05:14:50.817Z,67.08
2018-07-30T05:15:31.294Z,66.89
2018-07-30T05:16:11.820Z,67.08
2018-07-30T05:16:52.242Z,66.69
2018-07-30T05:17:32.765Z,66.99
2018-07-30T05:18:13.266Z,66.69
2018-07-30T05:18:53.751Z,67.08
2018-07-30T05:19:34.275Z,67.28
2018-07-30T05:20:14.735Z,66.21
2018-07-30T05:20:55.255Z,66.11
2018-07-30T05:21:35.765Z,65.63
2018-07-30T05:22:16.312Z,65.82
2018-07-30T05:22:56.775Z,65.05
2018-07-30T05:23:37.312Z,65.72
2018-07-30T05:24:17.780Z,66.69
2018-07-30T05:24:58.247Z,66.79
2018-07-30T05:25:38.840Z,68.44
2018-07-30T05:26:19.218Z,71.26
2018-07-30T05:26:59.714Z,70.57
2018-07-30T05:27:40.184Z,73.39
2018-07-30T05:28:20.720Z,74.56
2018-07-30T05:29:01.184Z,74.56
2018-07-30T05:29:41.670Z,73.88
2018-07-30T05:30:22.137Z,73.58
2018-07-30T05:31:02.672Z,73.2
2018-07-30T05:31:43.215Z,72.42
2018-07-30T05:32:23.647Z,74.37
2018-07-30T05:33:04.164Z,75.14
2018-07-30T05:33:44.638Z,73.58
2018-07-30T05:34:25.160Z,74.23
2018-07-30T05:35:05.691Z,74.56
2018-07-30T05:35:46.165Z,77.37
2018-07-30T05:36:26.629Z,77.95
2018-07-30T05:37:07.174Z,75.82
2018-07-30T05:37:47.671Z,75.2
2018-07-30T05:38:28.099Z,75.2
2018-07-30T05:39:08.601Z,73.26
2018-07-30T05:39:49.124Z,73.65
2018-07-30T05:40:29.597Z,73.55
2018-07-30T05:41:10.119Z,73.07
2018-07-30T05:41:50.547Z,71.61
2018-07-30T05:42:31.080Z,70.25
2018-07-30T05:43:11.589Z,68.79
2018-07-30T05:43:52.066Z,69.96
2018-07-30T05:44:32.553Z,68.73
2018-07-30T05:45:13.047Z,69.48
2018-07-30T05:45:53.605Z,73.78
2018-07-30T05:46:34.056Z,73.3
2018-07-30T05:47:14.513Z,71.45
2018-07-30T05:47:55.035Z,69.51
2018-07-30T05:48:35.501Z,70.15
2018-07-30T05:49:16.051Z,69.09
2018-07-30T05:49:56.611Z,67.14
2018-07-30T05:50:37.055Z,69.57
2018-07-30T05:51:17.568Z,72.67
2018-07-30T05:51:58.012Z,71.8
2018-07-30T05:52:38.517Z,69.22
2018-07-30T05:53:19.090Z,69.02
2018-07-30T05:53:59.538Z,65.14
2018-07-30T05:54:40.042Z,63.88
2018-07-30T05:55:20.531Z,64.95
2018-07-30T05:56:01.025Z,64.98
2018-07-30T05:56:41.487Z,68.93
2018-07-30T05:57:22.022Z,68.54
2018-07-30T05:58:02.519Z,68.83
2018-07-30T05:58:42.981Z,70.39
2018-07-30T05:59:23.510Z,69.12
2018-07-30T06:00:04.014Z,70.12
2018-07-30T06:00:44.500Z,73.91
2018-07-30T06:01:25.053Z,74.88
2018-07-30T06:02:05.566Z,74.92
2018-07-30T06:02:46.201Z,71.97
2018-07-30T06:03:26.664Z,71.81
2018-07-30T06:04:07.620Z,74.05
2018-07-30T06:04:48.092Z,74.63
2018-07-30T06:05:28.662Z,74.24
2018-07-30T06:06:09.061Z,74.28
2018-07-30T06:06:49.605Z,73.3
2018-07-30T06:07:30.129Z,72.53
2018-07-30T06:08:10.567Z,71.85
2018-07-30T06:08:51.126Z,70.78
2018-07-30T06:09:31.616Z,71.11
2018-07-30T06:10:12.094Z,70.13
2018-07-30T06:10:52.599Z,71.2
2018-07-30T06:11:33.073Z,69.29
2018-07-30T06:12:13.612Z,66.37
2018-07-30T06:12:54.103Z,62.26
2018-07-30T06:13:34.636Z,62.06
2018-07-30T06:14:15.138Z,61.11
2018-07-30T06:14:55.648Z,73.96
2018-07-30T06:15:36.186Z,69.29
2018-07-30T06:16:16.651Z,66.47
2018-07-30T06:16:57.188Z,70.3
2018-07-30T06:17:37.672Z,73.86
2018-07-30T06:18:18.134Z,72.25
2018-07-30T06:18:58.642Z,69.2
2018-07-30T06:19:39.170Z,68.74
2018-07-30T06:20:19.683Z,72.05
2018-07-30T06:21:00.325Z,69.62
2018-07-30T06:21:40.691Z,69.71
2018-07-30T06:22:21.225Z,67.77
2018-07-30T06:23:01.741Z,67.28
2018-07-30T06:23:42.262Z,68.93
2018-07-30T06:24:22.741Z,67.47
2018-07-30T06:25:03.319Z,66.79
2018-07-30T06:25:43.769Z,60.85
2018-07-30T06:26:24.307Z,68.06
2018-07-30T06:27:04.695Z,67.86
2018-07-30T06:27:45.185Z,70.1
2018-07-30T06:28:25.687Z,69.39
2018-07-30T06:29:06.201Z,66.08
2018-07-30T06:29:46.700Z,69
2018-07-30T06:30:27.228Z,68.9
2018-07-30T06:31:07.696Z,68.61
2018-07-30T06:31:48.207Z,69.84
2018-07-30T06:32:28.685Z,68.77
2018-07-30T06:33:09.160Z,67.11
2018-07-30T06:33:49.675Z,62.74
2018-07-30T06:34:30.198Z,68.29
2018-07-30T06:35:10.665Z,74.99
2018-07-30T06:35:51.219Z,68.19
2018-07-30T06:36:31.686Z,69.26
2018-07-30T06:37:12.207Z,71.5
2018-07-30T06:37:52.691Z,68.77
2018-07-30T06:38:33.278Z,71.23
2018-07-30T06:39:13.678Z,70.42
2018-07-30T06:39:54.151Z,69.84
2018-07-30T06:40:34.711Z,70.32
2018-07-30T06:41:15.206Z,71.92
2018-07-30T06:41:55.744Z,72.96
2018-07-30T06:42:36.228Z,71.3
2018-07-30T06:43:16.719Z,70.52
2018-07-30T06:43:57.176Z,68.77
2018-07-30T06:44:37.669Z,66.93
2018-07-30T06:45:18.181Z,72.08
2018-07-30T06:45:58.680Z,69.06
2018-07-30T06:46:39.193Z,71.2
2018-07-30T06:47:19.660Z,71.5
2018-07-30T06:48:00.237Z,71.98
2018-07-30T06:48:40.683Z,70.72
2018-07-30T06:49:21.195Z,74.02
2018-07-30T06:50:01.670Z,76.07
2018-07-30T06:50:42.130Z,71.14
2018-07-30T06:51:22.677Z,73.47
2018-07-30T06:52:03.109Z,67.73
2018-07-30T06:52:43.615Z,74.06
2018-07-30T06:53:24.355Z,70.46
2018-07-30T06:54:04.650Z,73.67
2018-07-30T06:54:45.119Z,75.26
2018-07-30T06:55:25.655Z,75.26
2018-07-30T06:56:06.142Z,72.92
2018-07-30T06:56:46.667Z,70.59
2018-07-30T06:57:27.126Z,67.47
2018-07-30T06:58:07.747Z,73.55
2018-07-30T06:58:48.190Z,68.87
2018-07-30T06:59:28.669Z,69.26
2018-07-30T07:00:09.182Z,70.56
2018-07-30T07:00:49.682Z,72.61
2018-07-30T07:01:30.127Z,74.95
2018-07-30T07:02:10.666Z,73.58
2018-07-30T07:02:51.174Z,71.15
2018-07-30T07:03:31.674Z,68.62
2018-07-30T07:04:12.194Z,67.64
2018-07-30T07:04:52.683Z,67.18
2018-07-30T07:05:33.216Z,65.43
2018-07-30T07:06:13.710Z,63.96
2018-07-30T07:06:54.210Z,66.5
2018-07-30T07:07:34.683Z,67.96
2018-07-30T07:08:15.185Z,66.79
2018-07-30T07:08:55.720Z,69.13
2018-07-30T07:09:36.243Z,70.4
2018-07-30T07:10:16.737Z,71.47
2018-07-30T07:10:57.295Z,71.96
2018-07-30T07:11:37.784Z,70.7
2018-07-30T07:12:18.231Z,71.28
2018-07-30T07:12:58.750Z,69.88
2018-07-30T07:13:39.358Z,69.49
2018-07-30T07:14:19.862Z,67.54
2018-07-30T07:15:00.370Z,68.9
2018-07-30T07:15:40.893Z,66.79
2018-07-30T07:16:21.373Z,65.23
2018-07-30T07:17:01.916Z,66.99
2018-07-30T07:17:42.407Z,68.65
2018-07-30T07:18:22.861Z,69.23
2018-07-30T07:19:03.372Z,69.43
2018-07-30T07:19:43.865Z,68.94
2018-07-30T07:20:24.605Z,69.62
2018-07-30T07:21:05.181Z,68.84
2018-07-30T07:21:45.775Z,65.14
2018-07-30T07:22:26.145Z,67.18
2018-07-30T07:23:06.665Z,66.6
2018-07-30T07:23:47.139Z,66.69
2018-07-30T07:24:27.615Z,69.92
2018-07-30T07:25:08.198Z,68.06
2018-07-30T07:25:48.667Z,67.96
2018-07-30T07:26:29.166Z,68.45
2018-07-30T07:27:09.689Z,71.18
2018-07-30T07:27:50.191Z,73.82
2018-07-30T07:28:30.677Z,73.13
2018-07-30T07:29:11.184Z,67.12
2018-07-30T07:29:51.957Z,69.95
2018-07-30T07:30:32.476Z,69.65
2018-07-30T07:31:12.982Z,73.66
2018-07-30T07:31:53.451Z,72.39
2018-07-30T07:32:34.023Z,68.97
2018-07-30T07:33:14.542Z,65.36
2018-07-30T07:33:55.065Z,66.53
2018-07-30T07:34:35.554Z,72.97
2018-07-30T07:35:16.080Z,69.07
2018-07-30T07:35:56.573Z,72.09
2018-07-30T07:36:37.075Z,72.19
2018-07-30T07:37:17.624Z,69.69
2018-07-30T07:37:58.094Z,69.3
2018-07-30T07:38:38.612Z,65.98
2018-07-30T07:39:19.169Z,66.37
2018-07-30T07:39:59.631Z,68.52
2018-07-30T07:40:40.139Z,65.56
2018-07-30T07:41:20.639Z,67.35
2018-07-30T07:42:01.117Z,62.24
2018-07-30T07:42:41.624Z,60.71
2018-07-30T07:43:22.152Z,69.49
2018-07-30T07:44:02.646Z,68.52
2018-07-30T07:44:43.142Z,66.37
2018-07-30T07:45:23.670Z,63.34
2018-07-30T07:46:04.192Z,67.83
2018-07-30T07:46:44.641Z,63.73
2018-07-30T07:47:25.184Z,66.47
2018-07-30T07:48:05.649Z,70.76
2018-07-30T07:48:46.130Z,72.03
2018-07-30T07:49:26.641Z,68.91
2018-07-30T07:50:07.295Z,68.42
2018-07-30T07:50:47.951Z,67.77
2018-07-30T07:51:28.132Z,69.43
2018-07-30T07:52:08.634Z,71.09
2018-07-30T07:52:49.166Z,67.97
2018-07-30T07:53:29.705Z,67.29
2018-07-30T07:54:10.164Z,70.51
2018-07-30T07:54:50.675Z,72.85
2018-07-30T07:55:31.181Z,70.8
2018-07-30T07:56:11.691Z,69.04
2018-07-30T07:56:52.205Z,68.95
2018-07-30T07:57:32.664Z,68.55
2018-07-30T07:58:13.183Z,68.85
2018-07-30T07:58:53.755Z,69.34
2018-07-30T07:59:34.174Z,67.48
2018-07-30T08:00:14.746Z,64.16
2018-07-30T08:00:55.203Z,60.74
2018-07-30T08:01:35.707Z,63.09
2018-07-30T08:02:16.210Z,64.06
2018-07-30T08:02:56.649Z,63.57
2018-07-30T08:03:37.155Z,65.53
2018-07-30T08:04:17.706Z,65.43
2018-07-30T08:04:58.197Z,66.11
2018-07-30T08:05:38.730Z,65.04
2018-07-30T08:06:19.311Z,66.99
2018-07-30T08:06:59.692Z,66.31
2018-07-30T08:07:40.201Z,65.3
2018-07-30T08:08:20.707Z,62.79
2018-07-30T08:09:01.167Z,61.23
2018-07-30T08:09:41.700Z,63.87
2018-07-30T08:10:22.160Z,67.38
2018-07-30T08:11:02.715Z,68.95
2018-07-30T08:11:43.167Z,68.81
2018-07-30T08:12:23.699Z,70.76
2018-07-30T08:13:04.182Z,66.27
2018-07-30T08:13:44.670Z,65.3
2018-07-30T08:14:25.147Z,65.92
2018-07-30T08:15:05.640Z,66.21
2018-07-30T08:15:46.152Z,69.04
2018-07-30T08:16:26.768Z,64.16
2018-07-30T08:17:07.123Z,64.36
2018-07-30T08:17:47.630Z,60.84
2018-07-30T08:18:28.133Z,58.2
2018-07-30T08:19:08.676Z,57.13
2018-07-30T08:19:49.210Z,58.98
2018-07-30T08:20:29.712Z,57.42
2018-07-30T08:21:10.149Z,55.96
2018-07-30T08:21:50.630Z,58.2
2018-07-30T08:22:31.128Z,63.09
2018-07-30T08:23:11.631Z,65.33
2018-07-30T08:23:52.259Z,64.84
2018-07-30T08:24:32.682Z,63.28
2018-07-30T08:25:13.193Z,60.45
2018-07-30T08:25:53.679Z,58.98
2018-07-30T08:26:34.185Z,57.91
2018-07-30T08:27:14.633Z,57.39
2018-07-30T08:27:55.216Z,59.15
2018-07-30T08:28:35.709Z,65.33
2018-07-30T08:29:16.186Z,62.66
2018-07-30T08:29:56.688Z,59.28
2018-07-30T08:30:37.130Z,59.67
2018-07-30T08:31:17.623Z,62.08
2018-07-30T08:31:58.196Z,62.95
2018-07-30T08:32:38.665Z,65.98
2018-07-30T08:33:19.188Z,66.76
2018-07-30T08:33:59.756Z,67.64
2018-07-30T08:34:40.261Z,67.32
2018-07-30T08:35:20.773Z,67.22
2018-07-30T08:36:01.239Z,67.22
2018-07-30T08:36:41.715Z,67.32
2018-07-30T08:37:22.255Z,65.17
2018-07-30T08:38:02.717Z,65.07
2018-07-30T08:38:43.201Z,64.68
2018-07-30T08:39:23.700Z,62.92
2018-07-30T08:40:04.215Z,60.1
2018-07-30T08:40:44.682Z,58.66
2018-07-30T08:41:25.237Z,60.03
2018-07-30T08:42:05.723Z,58.56
2018-07-30T08:42:46.197Z,57.95
2018-07-30T08:43:26.686Z,58.17
2018-07-30T08:44:07.231Z,60.19
2018-07-30T08:44:47.790Z,61.1